Terminal Aerodrome Forecast
Issued by NWS

Home | Current Version | Previous Version | Graphics & Text | Print | Product List | Glossary On
Versions: 1 2 3 4 5 6 7 8 9 10 11 12 13 14 15 16 17 18
845
FTUS43 KGRB 222325
TAFAUW
TAF
KAUW 222325Z 2300/2324 27005KT P6SM SKC
     FM230200 VRB03KT P6SM SKC
      TEMPO 2307/2311 3SM BR
     FM231400 11007KT P6SM SCT250
     FM231900 14008G14KT P6SM SCT040 BKN200 PROB30 2321/2324 4SM
      -TSRA BR BKN030CB=

USA.gov is the U.S. government's official web portal to all federal, state and local government web resources and services.